Time;durP1;ratioP1;P1;durP2;ratioP2;P2;SDS_P1;SDS_P2;PMS_P1;PMS_P2;Temp;Humidity;BMP_temperature;BMP_pressure;BME280_temperature;BME280_humidity;BME280_pressure;Samples;Min_cycle;Max_cycle;Signal;HPM_P1;HPM_P2
2022/10/13 00:01:10;;;;;;;;;;;;;;;10.82;92.75;101481.97;4991905;28;20337;-74
2022/10/13 00:03:37;;;;;;;;;;;;;;;10.89;92.77;101489.97;5010884;28;19917;-76
2022/10/13 00:06:04;;;;;;;;;;;;;;;10.67;93.44;101483.44;5009315;28;19916;-74
2022/10/13 00:08:29;;;;;;;;;;;;;;;10.77;93.13;101477.50;5007520;28;19917;-75
2022/10/13 00:10:54;;;;;;;;;;;;;;;11.10;92.26;101478.91;5003449;28;19946;-75
2022/10/13 00:13:19;;;;;;;;;;;;;;;10.89;92.41;101474.19;5005791;28;20358;-75
2022/10/13 00:15:46;;;;;;;;;;;;;;;10.72;93.84;101480.91;5009789;28;19925;-75
2022/10/13 00:18:11;;;;;;;;;;;;;;;10.71;93.65;101469.53;5010949;28;19989;-75
2022/10/13 00:20:54;;;;;;;;;;;;;;;10.84;92.08;101468.00;5009133;28;19927;-73
2022/10/13 00:23:20;;;;;;;;;;;;;;;10.96;93.97;101473.44;4999238;28;20024;-75
2022/10/13 00:25:47;;;;;;;;;;;;;;;10.91;94.67;101477.75;5005775;28;20013;-72
2022/10/13 00:28:13;;;;;;;;;;;;;;;10.87;94.12;101473.28;5007915;28;19922;-73
2022/10/13 00:30:38;;;;;;;;;;;;;;;10.99;93.29;101477.84;4993079;28;19924;-74
2022/10/13 00:33:04;;;;;;;;;;;;;;;11.08;93.37;101475.38;5006719;28;20294;-73
2022/10/13 00:35:29;;;;;;;;;;;;;;;11.02;93.54;101467.38;5010566;28;19914;-73
2022/10/13 00:37:54;;;;;;;;;;;;;;;11.14;92.81;101464.97;5008710;28;19921;-73
2022/10/13 00:40:20;;;;;;;;;;;;;;;11.04;93.94;101463.03;5007938;28;19967;-74
2022/10/13 00:42:45;;;;;;;;;;;;;;;11.04;93.20;101460.41;5004213;28;20004;-73
2022/10/13 00:45:19;;;;;;;;;;;;;;;10.89;94.42;101460.19;5009908;28;20368;-74
2022/10/13 00:47:46;;;;;;;;;;;;;;;10.69;94.52;101466.00;4982583;28;20296;-74
2022/10/13 00:50:14;;;;;;;;;;;;;;;10.42;95.87;101465.50;5007474;28;20699;-76
2022/10/13 00:52:40;;;;;;;;;;;;;;;10.30;96.39;101461.84;5002296;28;19921;-76
2022/10/13 00:55:07;;;;;;;;;;;;;;;10.39;95.09;101466.34;5013655;28;20020;-76
2022/10/13 00:57:32;;;;;;;;;;;;;;;10.38;94.43;101464.59;5002107;28;19913;-76
2022/10/13 00:59:59;;;;;;;;;;;;;;;10.46;93.38;101470.84;5009962;28;19936;-74
2022/10/13 01:02:27;;;;;;;;;;;;;;;10.50;92.73;101475.28;5004769;28;20448;-76
2022/10/13 01:04:52;;;;;;;;;;;;;;;10.73;92.39;101467.81;4997216;28;19921;-75
2022/10/13 01:07:17;;;;;;;;;;;;;;;10.82;93.38;101471.47;4988888;28;20609;-73
2022/10/13 01:09:44;;;;;;;;;;;;;;;10.81;92.83;101472.31;5021779;28;19921;-73
2022/10/13 01:12:29;;;;;;;;;;;;;;;10.63;91.30;101475.50;4996847;28;19929;-74
2022/10/13 01:15:13;;;;;;;;;;;;;;;10.55;91.29;101478.00;4989339;28;19918;-75
2022/10/13 01:17:59;;;;;;;;;;;;;;;10.71;91.38;101476.53;5001015;28;19980;-75
2022/10/13 01:20:24;;;;;;;;;;;;;;;10.91;92.14;101474.19;4987819;28;19928;-75
2022/10/13 01:23:08;;;;;;;;;;;;;;;10.88;93.09;101479.41;5004870;28;20392;-75
2022/10/13 01:25:49;;;;;;;;;;;;;;;10.60;91.72;101481.59;5001497;28;19921;-74
2022/10/13 01:28:34;;;;;;;;;;;;;;;10.70;90.46;101480.00;5006123;28;19925;-76
2022/10/13 01:31:09;;;;;;;;;;;;;;;10.52;91.16;101496.31;5008549;28;20012;-74
2022/10/13 01:33:40;;;;;;;;;;;;;;;10.67;90.53;101485.19;5006553;28;21538;-75
2022/10/13 01:36:05;;;;;;;;;;;;;;;10.77;89.65;101487.13;5006506;28;19913;-75
2022/10/13 01:38:38;;;;;;;;;;;;;;;10.71;90.17;101487.03;4989481;28;20392;-76
2022/10/13 01:41:20;;;;;;;;;;;;;;;10.66;91.91;101481.69;4812599;28;8286787;-73
2022/10/13 01:43:45;;;;;;;;;;;;;;;10.71;93.47;101474.78;5000702;28;19932;-74
2022/10/13 01:46:10;;;;;;;;;;;;;;;10.71;92.37;101480.03;4987974;28;19917;-76
2022/10/13 01:48:38;;;;;;;;;;;;;;;10.86;91.59;101476.75;4999437;28;19925;-75
2022/10/13 01:51:05;;;;;;;;;;;;;;;10.90;92.35;101480.31;5009715;28;19964;-75
2022/10/13 01:53:30;;;;;;;;;;;;;;;10.75;93.11;101478.34;5005969;28;19928;-76
2022/10/13 01:55:58;;;;;;;;;;;;;;;10.65;94.70;101472.06;5021922;28;19921;-75
2022/10/13 01:58:25;;;;;;;;;;;;;;;10.65;94.90;101476.41;5000184;28;19922;-77
2022/10/13 02:01:14;;;;;;;;;;;;;;;10.59;94.92;101464.09;5009137;28;20015;-75
2022/10/13 02:03:57;;;;;;;;;;;;;;;10.63;93.78;101465.00;5001495;28;20012;-74
2022/10/13 02:06:29;;;;;;;;;;;;;;;10.80;93.35;101465.31;5002090;28;20016;-74
2022/10/13 02:09:01;;;;;;;;;;;;;;;10.76;90.84;101464.34;5003366;28;19936;-75
2022/10/13 02:11:27;;;;;;;;;;;;;;;10.60;91.17;101457.09;4999105;28;19913;-77
2022/10/13 02:14:10;;;;;;;;;;;;;;;10.66;91.11;101462.44;4999817;28;19963;-75
2022/10/13 02:16:38;;;;;;;;;;;;;;;10.54;91.33;101452.63;5016390;28;19924;-74
2022/10/13 02:19:05;;;;;;;;;;;;;;;10.63;91.59;101463.28;5001304;28;19921;-74
2022/10/13 02:21:31;;;;;;;;;;;;;;;10.53;91.53;101461.34;5008561;28;19921;-75
2022/10/13 02:23:56;;;;;;;;;;;;;;;10.38;92.36;101464.59;4987833;28;19924;-74
2022/10/13 02:26:22;;;;;;;;;;;;;;;10.39;92.62;101462.84;4999278;28;20408;-75
2022/10/13 02:28:47;;;;;;;;;;;;;;;10.23;93.91;101459.94;5000894;28;20281;-75
2022/10/13 02:31:12;;;;;;;;;;;;;;;10.14;94.75;101459.75;5014796;28;20356;-74
2022/10/13 02:33:37;;;;;;;;;;;;;;;10.08;94.99;101460.50;5008027;28;19921;-75
2022/10/13 02:36:03;;;;;;;;;;;;;;;9.97;94.80;101458.53;5009615;28;20273;-74
2022/10/13 02:38:28;;;;;;;;;;;;;;;9.40;94.39;101352.59;4999858;28;19917;-75
2022/10/13 02:40:54;;;;;;;;;;;;;;;10.05;94.57;101456.97;5004112;28;19921;-75
2022/10/13 02:43:19;;;;;;;;;;;;;;;10.14;94.51;101459.75;4992017;28;20355;-75
2022/10/13 02:45:44;;;;;;;;;;;;;;;10.16;94.23;101452.81;4989899;28;19926;-75
2022/10/13 02:48:09;;;;;;;;;;;;;;;10.18;94.27;101451.06;4985296;28;19917;-76
2022/10/13 02:50:35;;;;;;;;;;;;;;;10.29;93.98;101451.31;5004744;28;19924;-75
2022/10/13 02:53:01;;;;;;;;;;;;;;;10.24;94.57;101450.31;5002938;28;19936;-76
2022/10/13 02:55:26;;;;;;;;;;;;;;;10.24;95.18;101445.94;5005943;28;19927;-76
2022/10/13 02:57:51;;;;;;;;;;;;;;;10.25;95.11;101449.44;5003932;28;20447;-75
2022/10/13 03:00:16;;;;;;;;;;;;;;;10.21;95.03;101447.63;5006204;28;19924;-76
2022/10/13 03:02:42;;;;;;;;;;;;;;;10.07;95.78;101450.88;5001135;28;20466;-75
2022/10/13 03:05:07;;;;;;;;;;;;;;;10.13;96.24;101450.09;5006590;28;20293;-76
2022/10/13 03:07:33;;;;;;;;;;;;;;;10.08;95.92;101455.25;5006294;28;19917;-74
2022/10/13 03:09:58;;;;;;;;;;;;;;;10.02;96.10;101449.91;4989621;28;20505;-77
2022/10/13 03:12:23;;;;;;;;;;;;;;;10.06;96.78;101454.34;4990331;28;19921;-78
2022/10/13 03:14:49;;;;;;;;;;;;;;;9.98;97.09;101449.84;5004239;28;20284;-79
2022/10/13 03:17:14;;;;;;;;;;;;;;;9.80;97.89;101466.06;5005265;28;20377;-79
2022/10/13 03:19:39;;;;;;;;;;;;;;;9.76;97.96;101459.88;5003545;28;19922;-77
2022/10/13 03:22:04;;;;;;;;;;;;;;;9.56;98.58;101475.19;5005351;28;20006;-79
2022/10/13 03:24:30;;;;;;;;;;;;;;;9.50;99.34;101470.72;4986663;28;20381;-80
2022/10/13 03:26:55;;;;;;;;;;;;;;;9.48;99.82;101469.81;5001509;28;19936;-78
2022/10/13 03:29:21;;;;;;;;;;;;;;;9.48;99.73;101464.56;5006495;28;20012;-78
2022/10/13 03:31:46;;;;;;;;;;;;;;;9.47;99.60;101459.28;5007447;28;19924;-78
2022/10/13 03:34:13;;;;;;;;;;;;;;;9.47;99.22;101456.66;5005906;28;19921;-79
2022/10/13 03:36:39;;;;;;;;;;;;;;;9.15;99.37;101419.28;5007842;28;20353;-77
2022/10/13 03:39:05;;;;;;;;;;;;;;;9.37;99.61;101455.59;5006264;28;19924;-78
2022/10/13 03:41:30;;;;;;;;;;;;;;;9.41;99.96;101459.13;5007457;28;19921;-79
2022/10/13 03:43:56;;;;;;;;;;;;;;;9.48;99.80;101451.47;5001655;28;19921;-79
2022/10/13 03:46:23;;;;;;;;;;;;;;;9.58;99.56;101452.53;5003113;28;19922;-78
2022/10/13 03:48:49;;;;;;;;;;;;;;;9.37;100.00;101459.94;4988188;28;19943;-79
2022/10/13 03:51:16;;;;;;;;;;;;;;;9.32;100.00;101458.94;4986544;28;19921;-80
2022/10/13 03:53:41;;;;;;;;;;;;;;;9.38;100.00;101457.34;5000072;28;19957;-78
2022/10/13 03:56:06;;;;;;;;;;;;;;;9.34;100.00;101452.91;5001805;28;20031;-79
2022/10/13 03:58:32;;;;;;;;;;;;;;;9.31;100.00;101452.81;4995950;28;19975;-78
2022/10/13 04:01:01;;;;;;;;;;;;;;;9.20;100.00;101455.22;5005988;28;19943;-78
2022/10/13 04:03:26;;;;;;;;;;;;;;;9.15;100.00;101461.19;4997289;28;19917;-78
2022/10/13 04:05:51;;;;;;;;;;;;;;;9.09;100.00;101465.44;5009826;28;19948;-78
2022/10/13 04:08:16;;;;;;;;;;;;;;;9.11;100.00;101461.97;5010149;28;19914;-78
2022/10/13 04:10:42;;;;;;;;;;;;;;;9.13;100.00;101462.88;5009374;28;20273;-76
2022/10/13 04:13:07;;;;;;;;;;;;;;;9.12;100.00;101458.50;4997732;28;19914;-81
2022/10/13 04:15:36;;;;;;;;;;;;;;;9.26;100.00;101463.19;4990816;28;19923;-79
2022/10/13 04:18:01;;;;;;;;;;;;;;;9.35;100.00;101465.13;5008070;28;19964;-80
2022/10/13 04:20:36;;;;;;;;;;;;;;;9.36;100.00;101463.41;5007764;28;20027;-82
2022/10/13 04:23:02;;;;;;;;;;;;;;;9.29;100.00;101463.28;5015408;28;19925;-80
2022/10/13 04:25:27;;;;;;;;;;;;;;;9.36;100.00;101466.91;5009234;28;19928;-80
2022/10/13 04:27:52;;;;;;;;;;;;;;;9.35;100.00;101470.38;5007775;28;19922;-79
2022/10/13 04:30:18;;;;;;;;;;;;;;;9.34;100.00;101468.63;5010230;28;19913;-76
2022/10/13 04:32:43;;;;;;;;;;;;;;;9.25;100.00;101463.19;5009169;28;19918;-80
2022/10/13 04:35:08;;;;;;;;;;;;;;;9.26;100.00;101471.06;4998009;28;20369;-78
2022/10/13 04:37:34;;;;;;;;;;;;;;;9.40;100.00;101466.13;5000184;28;19921;-79
2022/10/13 04:39:59;;;;;;;;;;;;;;;9.32;100.00;101472.03;5005673;28;19968;-79
2022/10/13 04:42:24;;;;;;;;;;;;;;;9.49;100.00;101468.94;4993087;28;20282;-78
2022/10/13 04:44:49;;;;;;;;;;;;;;;9.49;99.49;101468.06;4990770;28;19913;-79
2022/10/13 04:47:15;;;;;;;;;;;;;;;9.64;99.24;101457.00;4985725;28;21808;-80
2022/10/13 04:49:40;;;;;;;;;;;;;;;9.77;98.53;101455.53;4999993;28;19924;-78
2022/10/13 04:52:05;;;;;;;;;;;;;;;9.91;98.19;101456.69;5006382;28;20389;-78
2022/10/13 04:54:31;;;;;;;;;;;;;;;9.92;98.73;101451.47;5005378;28;19915;-81
2022/10/13 04:56:56;;;;;;;;;;;;;;;9.96;98.50;101454.16;5009983;28;20360;-79
2022/10/13 04:59:21;;;;;;;;;;;;;;;9.97;97.71;101455.91;5008143;28;19927;-79
2022/10/13 05:01:53;;;;;;;;;;;;;;;10.03;97.42;101451.69;5008329;28;19928;-79
2022/10/13 05:04:18;;;;;;;;;;;;;;;10.10;96.98;101455.31;5007164;28;19923;-78
2022/10/13 05:06:50;;;;;;;;;;;;;;;10.25;96.46;101452.94;5007770;28;19921;-79
2022/10/13 05:09:15;;;;;;;;;;;;;;;10.31;95.83;101453.09;5009517;28;20300;-80
2022/10/13 05:11:41;;;;;;;;;;;;;;;10.34;95.95;101453.16;4987137;28;19925;-79
2022/10/13 05:14:07;;;;;;;;;;;;;;;10.27;95.77;101453.84;4989799;28;19914;-80
2022/10/13 05:16:32;;;;;;;;;;;;;;;10.32;95.66;101457.50;4996997;28;19925;-79
2022/10/13 05:18:57;;;;;;;;;;;;;;;10.46;94.71;101462.09;5003963;28;22175;-80
2022/10/13 05:21:25;;;;;;;;;;;;;;;10.49;94.46;101465.66;4986129;28;20718;-79
2022/10/13 05:23:54;;;;;;;;;;;;;;;10.58;93.80;101459.66;5007956;28;19913;-79
2022/10/13 05:26:21;;;;;;;;;;;;;;;10.55;93.71;101475.38;5011929;28;19913;-79
2022/10/13 05:28:46;;;;;;;;;;;;;;;10.68;93.45;101471.22;5007348;28;20388;-79
2022/10/13 05:31:13;;;;;;;;;;;;;;;10.53;93.94;101470.09;4999925;28;19910;-80
2022/10/13 05:33:39;;;;;;;;;;;;;;;10.71;93.27;101472.16;5000916;28;19925;-79
2022/10/13 05:36:15;;;;;;;;;;;;;;;10.87;93.01;101480.28;5006336;28;20396;-79
2022/10/13 05:38:40;;;;;;;;;;;;;;;10.87;92.39;101478.53;5007112;28;19917;-79
2022/10/13 05:41:07;;;;;;;;;;;;;;;11.04;92.09;101476.16;5001955;28;20642;-80
2022/10/13 05:43:33;;;;;;;;;;;;;;;11.14;91.46;101477.19;4992598;28;20225;-79
2022/10/13 05:45:59;;;;;;;;;;;;;;;11.18;91.50;101473.75;4988384;28;20428;-79
2022/10/13 05:48:25;;;;;;;;;;;;;;;11.29;91.45;101477.44;4980360;28;19924;-80
2022/10/13 05:50:51;;;;;;;;;;;;;;;11.38;90.25;101480.19;4984124;28;19910;-79
2022/10/13 05:53:16;;;;;;;;;;;;;;;11.50;89.45;101484.72;4994841;28;19921;-79
2022/10/13 05:55:41;;;;;;;;;;;;;;;11.59;88.87;101482.22;4980967;28;20085;-77
2022/10/13 05:58:07;;;;;;;;;;;;;;;11.66;88.66;101491.06;4980415;28;20409;-79
2022/10/13 06:00:33;;;;;;;;;;;;;;;11.52;88.06;101482.09;4967825;28;19909;-82
2022/10/13 06:03:02;;;;;;;;;;;;;;;11.61;87.66;101495.34;4982860;28;20727;-78
2022/10/13 06:05:30;;;;;;;;;;;;;;;11.61;86.76;101495.34;4978622;28;19918;-85
2022/10/13 06:07:57;;;;;;;;;;;;;;;11.72;86.86;101506.03;4995046;28;19922;-86
2022/10/13 06:10:23;;;;;;;;;;;;;;;11.82;86.45;101498.28;4970172;28;19918;-84
2022/10/13 06:12:48;;;;;;;;;;;;;;;11.89;86.34;101499.25;4986906;28;19929;-85
2022/10/13 06:15:14;;;;;;;;;;;;;;;12.03;85.34;101508.22;4990778;28;19918;-87
2022/10/13 06:17:39;;;;;;;;;;;;;;;12.12;84.81;101507.41;4987313;28;19918;-81
2022/10/13 06:20:06;;;;;;;;;;;;;;;11.95;85.05;101517.75;4984438;28;20115;-84
2022/10/13 06:22:32;;;;;;;;;;;;;;;11.80;85.02;101513.16;4977591;28;19922;-86
2022/10/13 06:24:57;;;;;;;;;;;;;;;11.87;84.48;101508.91;4985700;28;20031;-83
2022/10/13 06:27:24;;;;;;;;;;;;;;;12.05;83.17;101508.22;4988174;28;20440;-86
2022/10/13 06:29:51;;;;;;;;;;;;;;;12.14;82.96;101510.06;4986576;28;19917;-86
2022/10/13 06:32:16;;;;;;;;;;;;;;;12.03;83.14;101509.94;4968851;28;19925;-83
2022/10/13 06:34:42;;;;;;;;;;;;;;;12.19;83.09;101503.13;4980335;28;19917;-85
2022/10/13 06:37:07;;;;;;;;;;;;;;;12.16;82.69;101511.84;4986209;28;19918;-86
2022/10/13 06:39:33;;;;;;;;;;;;;;;12.23;83.06;101503.16;4979981;28;19917;-83
2022/10/13 06:41:58;;;;;;;;;;;;;;;12.33;82.53;101506.78;4982672;28;19967;-85
2022/10/13 06:44:23;;;;;;;;;;;;;;;12.43;81.92;101511.28;4980842;28;20373;-85
2022/10/13 06:46:49;;;;;;;;;;;;;;;12.38;82.26;101509.44;4988453;28;19918;-83
2022/10/13 06:49:14;;;;;;;;;;;;;;;12.43;82.00;101508.66;4967355;28;19925;-84
2022/10/13 06:51:39;;;;;;;;;;;;;;;12.38;82.07;101510.31;4995090;28;20448;-81
2022/10/13 06:54:05;;;;;;;;;;;;;;;12.40;82.07;101503.34;4999409;28;19914;-84
2022/10/13 06:56:30;;;;;;;;;;;;;;;12.51;81.50;101508.72;4969999;28;19917;-83
2022/10/13 06:58:56;;;;;;;;;;;;;;;12.57;81.14;101510.50;4970302;28;19957;-82
2022/10/13 07:01:21;;;;;;;;;;;;;;;12.68;80.50;101507.09;4976297;28;20444;-87
2022/10/13 07:03:50;;;;;;;;;;;;;;;12.83;80.06;101505.47;4987622;28;19924;-84
2022/10/13 07:06:15;;;;;;;;;;;;;;;12.83;79.99;101506.38;4973814;28;19917;-83
2022/10/13 07:08:41;;;;;;;;;;;;;;;13.01;79.31;101502.97;5008419;28;20382;-87
2022/10/13 07:11:07;;;;;;;;;;;;;;;13.08;79.20;101512.69;4984026;28;19922;-86
2022/10/13 07:13:33;;;;;;;;;;;;;;;13.17;78.98;101511.91;4997673;28;19953;-85
2022/10/13 07:16:01;;;;;;;;;;;;;;;13.30;78.58;101512.91;5003630;28;19968;-84
2022/10/13 07:18:26;;;;;;;;;;;;;;;13.48;77.67;101517.41;4988254;28;20005;-82
2022/10/13 07:20:51;;;;;;;;;;;;;;;13.49;77.88;101511.25;4994920;28;19932;-84
2022/10/13 07:23:17;;;;;;;;;;;;;;;13.58;77.33;101505.13;5001572;28;20255;-84
2022/10/13 07:25:42;;;;;;;;;;;;;;;13.32;77.61;101511.13;4969612;28;20020;-85
2022/10/13 07:28:07;;;;;;;;;;;;;;;13.40;78.00;101501.53;4970380;28;20349;-82
2022/10/13 07:30:32;;;;;;;;;;;;;;;13.50;78.25;101499.81;4983246;28;19917;-85
2022/10/13 07:32:58;;;;;;;;;;;;;;;13.67;77.60;101498.19;4981263;28;20000;-83
2022/10/13 07:35:24;;;;;;;;;;;;;;;13.70;77.88;101494.66;4988621;28;19924;-87
2022/10/13 07:37:51;;;;;;;;;;;;;;;13.76;77.75;101492.03;4991986;28;19922;-83
2022/10/13 07:40:16;;;;;;;;;;;;;;;13.84;77.28;101492.09;4997048;28;19972;-77
2022/10/13 07:42:41;;;;;;;;;;;;;;;13.80;76.83;101498.22;4983753;28;19922;-83
2022/10/13 07:45:07;;;;;;;;;;;;;;;13.91;76.33;101494.75;4992124;28;20385;-86
2022/10/13 07:47:32;;;;;;;;;;;;;;;14.05;75.04;101496.56;4980060;28;19973;-82
2022/10/13 07:49:57;;;;;;;;;;;;;;;13.93;75.30;101495.66;4974979;28;19966;-82
2022/10/13 07:52:23;;;;;;;;;;;;;;;14.12;75.03;101500.97;4980971;28;19941;-86
2022/10/13 07:54:48;;;;;;;;;;;;;;;14.14;75.18;101486.91;4986966;28;19922;-83
2022/10/13 07:57:14;;;;;;;;;;;;;;;13.57;74.83;101400.53;4989661;28;19913;-83
2022/10/13 07:59:39;;;;;;;;;;;;;;;14.15;75.89;101493.06;4985157;28;20629;-80
2022/10/13 08:02:05;;;;;;;;;;;;;;;14.21;75.24;101500.09;4989619;28;19980;-81
2022/10/13 08:04:30;;;;;;;;;;;;;;;14.32;74.91;101501.91;4989330;28;20004;-83
2022/10/13 08:06:57;;;;;;;;;;;;;;;14.38;74.81;101500.16;4989913;28;19925;-81
2022/10/13 08:09:22;;;;;;;;;;;;;;;14.56;73.22;101502.84;4981225;28;19937;-83
2022/10/13 08:11:47;;;;;;;;;;;;;;;14.56;73.33;101498.47;4989150;28;20409;-81
2022/10/13 08:14:13;;;;;;;;;;;;;;;14.59;73.19;101502.00;4971314;28;19918;-82
2022/10/13 08:16:40;;;;;;;;;;;;;;;14.73;72.51;101497.59;4982406;28;20004;-83
2022/10/13 08:19:05;;;;;;;;;;;;;;;14.74;72.33;101504.63;4987175;28;19921;-82
2022/10/13 08:21:31;;;;;;;;;;;;;;;14.85;72.16;101497.59;4993263;28;19925;-82
2022/10/13 08:23:56;;;;;;;;;;;;;;;14.91;71.44;101501.97;5004800;28;19920;-81
2022/10/13 08:26:23;;;;;;;;;;;;;;;14.99;71.54;101492.31;5004450;28;20053;-81
2022/10/13 08:28:49;;;;;;;;;;;;;;;15.04;71.18;101490.53;4989320;28;19918;-80
2022/10/13 08:31:14;;;;;;;;;;;;;;;15.06;71.73;101486.13;4973258;28;19922;-82
2022/10/13 08:33:40;;;;;;;;;;;;;;;15.15;70.97;101490.53;4991133;28;20353;-79
2022/10/13 08:36:06;;;;;;;;;;;;;;;15.19;70.38;101492.25;4987882;28;19976;-81
2022/10/13 08:38:31;;;;;;;;;;;;;;;15.28;69.67;101494.88;4989167;28;20008;-81
2022/10/13 08:40:56;;;;;;;;;;;;;;;15.34;69.51;101484.31;4991001;28;20062;-82
2022/10/13 08:43:23;;;;;;;;;;;;;;;15.35;69.09;101483.41;4997116;28;20409;-80
2022/10/13 08:45:54;;;;;;;;;;;;;;;15.55;68.33;101487.78;4996287;28;20592;-82
2022/10/13 08:48:35;;;;;;;;;;;;;;;15.51;67.93;101488.66;5010142;28;20011;-81
2022/10/13 08:51:07;;;;;;;;;;;;;;;15.60;68.69;101483.34;5010021;28;19920;-80
2022/10/13 08:53:38;;;;;;;;;;;;;;;15.75;67.45;101488.59;4992302;28;20017;-81
2022/10/13 08:56:04;;;;;;;;;;;;;;;15.81;69.16;101480.66;5008792;28;19918;-81
2022/10/13 08:58:31;;;;;;;;;;;;;;;15.91;67.02;101484.13;5009921;28;19972;-82
2022/10/13 09:00:59;;;;;;;;;;;;;;;15.76;67.25;101481.56;4977577;28;19922;-80
2022/10/13 09:03:26;;;;;;;;;;;;;;;15.90;67.01;101470.91;5001218;28;19917;-81
2022/10/13 09:06:09;;;;;;;;;;;;;;;16.05;66.76;101473.47;5010179;28;19917;-80
2022/10/13 09:08:41;;;;;;;;;;;;;;;16.05;67.48;101468.16;5006253;28;19917;-82
2022/10/13 09:11:08;;;;;;;;;;;;;;;16.30;66.43;101468.03;4999883;28;20328;-80
2022/10/13 09:13:33;;;;;;;;;;;;;;;16.41;65.58;101469.72;4994752;28;19918;-80
2022/10/13 09:15:58;;;;;;;;;;;;;;;16.40;65.37;101469.72;4991572;28;19972;-80
2022/10/13 09:18:30;;;;;;;;;;;;;;;16.57;64.43;101473.13;5005058;28;20334;-80
2022/10/13 09:21:09;;;;;;;;;;;;;;;16.60;64.70;101466.91;4989835;28;19914;-81
2022/10/13 09:23:34;;;;;;;;;;;;;;;16.61;65.23;101468.69;4989910;28;19914;-81
2022/10/13 09:26:05;;;;;;;;;;;;;;;16.61;65.29;101455.44;4988641;28;19996;-81
2022/10/13 09:28:31;;;;;;;;;;;;;;;16.58;64.52;101456.34;5007513;28;19957;-83
2022/10/13 09:31:00;;;;;;;;;;;;;;;16.63;64.37;101458.97;4998858;28;20376;-79
2022/10/13 09:33:25;;;;;;;;;;;;;;;16.66;64.06;101457.16;4987679;28;19925;-84
2022/10/13 09:36:01;;;;;;;;;;;;;;;16.82;63.95;101451.75;5003177;28;19917;-81
2022/10/13 09:38:27;;;;;;;;;;;;;;;16.99;62.94;101452.47;4999744;28;19933;-81
2022/10/13 09:41:12;;;;;;;;;;;;;;;17.13;61.09;101447.03;5006448;28;19926;-80
2022/10/13 09:43:46;;;;;;;;;;;;;;;17.20;59.97;101446.06;5001294;28;19925;-79
2022/10/13 09:46:18;;;;;;;;;;;;;;;17.35;59.43;101445.03;4996956;28;19979;-79
2022/10/13 09:48:46;;;;;;;;;;;;;;;17.36;59.24;101433.50;5008933;28;20016;-78
2022/10/13 09:51:41;;;;;;;;;;;;;;;17.40;60.64;101432.59;5000637;28;19967;-80
2022/10/13 09:54:24;;;;;;;;;;;;;;;17.56;59.43;101435.03;4976275;28;19924;-79
2022/10/13 09:56:52;;;;;;;;;;;;;;;17.55;59.95;101438.59;4989288;28;19932;-77
2022/10/13 09:59:38;;;;;;;;;;;;;;;17.72;59.42;101437.50;5002326;28;19924;-79
2022/10/13 10:02:18;;;;;;;;;;;;;;;17.57;58.16;101435.03;5005607;28;19964;-81
2022/10/13 10:04:44;;;;;;;;;;;;;;;17.48;57.21;101429.81;4997811;28;19917;-78
2022/10/13 10:07:16;;;;;;;;;;;;;;;17.81;57.65;101425.88;5000666;28;19929;-76
2022/10/13 10:09:53;;;;;;;;;;;;;;;17.84;56.92;101423.22;4990390;28;19932;-82
2022/10/13 10:12:20;;;;;;;;;;;;;;;18.01;56.36;101424.75;5004414;28;19914;-78
2022/10/13 10:14:47;;;;;;;;;;;;;;;17.79;55.45;101427.66;4989824;28;19939;-79
2022/10/13 10:17:18;;;;;;;;;;;;;;;17.82;54.17;101408.19;4998378;28;19917;-79
2022/10/13 10:19:47;;;;;;;;;;;;;;;18.07;55.45;101411.34;4979712;28;19928;-77
2022/10/13 10:22:33;;;;;;;;;;;;;;;18.07;51.88;101414.00;5007455;28;19913;-79
2022/10/13 10:24:58;;;;;;;;;;;;;;;18.10;52.31;101400.72;5008147;28;19918;-79
2022/10/13 10:27:30;;;;;;;;;;;;;;;18.33;53.04;101397.66;5005375;28;19913;-79
2022/10/13 10:30:07;;;;;;;;;;;;;;;18.37;54.50;101394.06;4990788;28;20020;-79
2022/10/13 10:32:44;;;;;;;;;;;;;;;18.37;51.84;101396.72;4990781;28;19972;-80
2022/10/13 10:35:16;;;;;;;;;;;;;;;18.42;50.46;101400.16;5007168;28;19995;-75
2022/10/13 10:37:44;;;;;;;;;;;;;;;18.58;47.44;101400.78;5006901;28;19967;-76
2022/10/13 10:40:29;;;;;;;;;;;;;;;18.68;46.25;101388.22;5004440;28;20301;-78
2022/10/13 10:42:55;;;;;;;;;;;;;;;18.79;44.86;101388.06;5005792;28;20036;-78
2022/10/13 10:45:33;;;;;;;;;;;;;;;18.85;45.98;101382.66;4979436;28;19924;-76
2022/10/13 10:48:03;;;;;;;;;;;;;;;18.73;46.46;101384.59;5004238;28;19913;-79
2022/10/13 10:50:29;;;;;;;;;;;;;;;18.91;46.33;101372.75;5003467;28;19921;-81
2022/10/13 10:52:55;;;;;;;;;;;;;;;18.85;47.63;101372.88;4992659;28;19974;-77
2022/10/13 10:55:31;;;;;;;;;;;;;;;18.58;47.91;101371.56;4994483;28;20324;-79
2022/10/13 10:58:13;;;;;;;;;;;;;;;18.65;48.96;101364.34;4996578;28;19967;-79
2022/10/13 11:00:47;;;;;;;;;;;;;;;18.47;48.94;101368.19;4992618;28;19921;-77
2022/10/13 11:03:20;;;;;;;;;;;;;;;18.55;49.01;101356.53;5006768;28;19917;-79
2022/10/13 11:06:00;;;;;;;;;;;;;;;18.82;47.44;101353.44;5006848;28;19928;-79
2022/10/13 11:08:45;;;;;;;;;;;;;;;18.82;47.51;101351.63;4995890;28;19921;-78
2022/10/13 11:11:27;;;;;;;;;;;;;;;18.80;47.36;101356.13;5001800;28;19928;-78
2022/10/13 11:13:55;;;;;;;;;;;;;;;18.93;46.01;101340.81;4998510;28;19921;-79
2022/10/13 11:16:23;;;;;;;;;;;;;;;18.47;47.78;101268.09;5011507;28;19922;-80
2022/10/13 11:19:06;;;;;;;;;;;;;;;18.75;46.18;101340.25;4993563;28;20393;-77
2022/10/13 11:21:51;;;;;;;;;;;;;;;18.96;45.71;101332.75;5019400;28;20005;-79
2022/10/13 11:24:42;;;;;;;;;;;;;;;18.68;44.76;101327.97;5010911;28;20015;-78
2022/10/13 11:27:08;;;;;;;;;;;;;;;18.65;45.22;101319.16;4998403;28;19918;-78
2022/10/13 11:29:42;;;;;;;;;;;;;;;18.60;46.90;101321.91;5003351;28;20040;-78
2022/10/13 11:32:31;;;;;;;;;;;;;;;18.54;45.60;101316.69;5021831;28;19917;-77
2022/10/13 11:35:08;;;;;;;;;;;;;;;18.64;45.69;101314.75;5009960;28;19989;-78
2022/10/13 11:37:34;;;;;;;;;;;;;;;18.93;45.32;101309.75;5005356;28;19928;-76
2022/10/13 11:40:14;;;;;;;;;;;;;;;18.82;45.11;101311.75;5002948;28;19922;-76
2022/10/13 11:42:45;;;;;;;;;;;;;;;18.76;44.88;101301.22;4992652;28;19928;-79
2022/10/13 11:45:31;;;;;;;;;;;;;;;18.96;44.10;101306.16;4989935;28;20273;-77
2022/10/13 11:48:11;;;;;;;;;;;;;;;19.18;43.94;101299.50;4974602;28;19917;-79
2022/10/13 11:50:59;;;;;;;;;;;;;;;19.22;42.62;101294.09;5009117;28;19966;-78
2022/10/13 11:53:43;;;;;;;;;;;;;;;19.21;43.18;101292.34;4980302;28;20373;-78
2022/10/13 11:56:19;;;;;;;;;;;;;;;19.18;44.87;101287.97;4989921;28;19917;-79
2022/10/13 11:58:44;;;;;;;;;;;;;;;18.71;43.50;101287.16;4989909;28;19928;-78
2022/10/13 12:01:14;;;;;;;;;;;;;;;18.24;43.90;101204.75;4987869;28;19925;-77
2022/10/13 12:03:43;;;;;;;;;;;;;;;18.60;42.69;101286.47;5010248;28;20310;-78
2022/10/13 12:06:15;;;;;;;;;;;;;;;18.61;42.00;101286.41;5006824;28;19917;-76
2022/10/13 12:08:43;;;;;;;;;;;;;;;18.69;41.93;101283.63;5005300;28;20021;-79
2022/10/13 12:11:22;;;;;;;;;;;;;;;18.83;42.64;101284.28;5004482;28;20024;-78
2022/10/13 12:13:47;;;;;;;;;;;;;;;18.79;42.57;101285.22;5009589;28;19926;-79
2022/10/13 12:16:13;;;;;;;;;;;;;;;18.59;41.17;101284.69;5007117;28;19991;-78
2022/10/13 12:18:39;;;;;;;;;;;;;;;18.33;41.36;101231.16;5010443;28;19976;-76
2022/10/13 12:21:08;;;;;;;;;;;;;;;18.55;40.57;101284.78;5001795;28;19918;-78
2022/10/13 12:23:33;;;;;;;;;;;;;;;18.84;40.61;101279.81;5010208;28;19909;-78
2022/10/13 12:25:59;;;;;;;;;;;;;;;18.56;40.76;101288.28;5003645;28;19927;-78
2022/10/13 12:28:29;;;;;;;;;;;;;;;18.76;39.98;101275.53;5002389;28;19925;-78
2022/10/13 12:30:56;;;;;;;;;;;;;;;18.91;40.26;101273.47;4999400;28;19917;-76
2022/10/13 12:33:26;;;;;;;;;;;;;;;18.95;39.99;101270.72;4999130;28;19918;-78
2022/10/13 12:35:52;;;;;;;;;;;;;;;19.03;39.81;101281.19;5006362;28;20012;-77
2022/10/13 12:38:18;;;;;;;;;;;;;;;19.12;40.54;101269.47;4994077;28;20004;-78
2022/10/13 12:40:44;;;;;;;;;;;;;;;19.18;39.93;101270.22;5004184;28;19945;-80
2022/10/13 12:43:15;;;;;;;;;;;;;;;19.14;40.56;101271.19;4999328;28;19929;-77
2022/10/13 12:45:41;;;;;;;;;;;;;;;19.14;39.46;101262.34;5005441;28;19964;-79